sensor_id;sensor_type;location;lat;lon;timestamp;P1;durP1;ratioP1;P2;durP2;ratioP2
66593;SDS011;53450;42.584;23.366;2023-01-23T00:06:00;7.40;;;4.53;;
66593;SDS011;53450;42.584;23.366;2023-01-23T00:08:32;12.88;;;4.13;;
66593;SDS011;53450;42.584;23.366;2023-01-23T00:10:59;9.50;;;6.90;;
66593;SDS011;53450;42.584;23.366;2023-01-23T00:13:24;7.22;;;5.00;;
66593;SDS011;53450;42.584;23.366;2023-01-23T00:15:51;10.60;;;4.40;;
66593;SDS011;53450;42.584;23.366;2023-01-23T00:18:16;8.07;;;4.22;;
66593;SDS011;53450;42.584;23.366;2023-01-23T00:20:42;10.10;;;5.55;;
66593;SDS011;53450;42.584;23.366;2023-01-23T00:23:08;4.78;;;3.95;;
66593;SDS011;53450;42.584;23.366;2023-01-23T00:25:35;10.38;;;4.30;;
66593;SDS011;53450;42.584;23.366;2023-01-23T00:28:01;8.10;;;3.92;;
66593;SDS011;53450;42.584;23.366;2023-01-23T00:30:27;3.95;;;3.10;;
66593;SDS011;53450;42.584;23.366;2023-01-23T00:32:52;9.20;;;4.40;;
66593;SDS011;53450;42.584;23.366;2023-01-23T00:35:18;7.05;;;4.03;;
66593;SDS011;53450;42.584;23.366;2023-01-23T00:37:46;5.55;;;3.80;;
66593;SDS011;53450;42.584;23.366;2023-01-23T00:40:11;5.75;;;4.55;;
66593;SDS011;53450;42.584;23.366;2023-01-23T00:42:37;9.85;;;4.20;;
66593;SDS011;53450;42.584;23.366;2023-01-23T00:45:03;6.50;;;4.07;;
66593;SDS011;53450;42.584;23.366;2023-01-23T00:47:29;5.78;;;4.70;;
66593;SDS011;53450;42.584;23.366;2023-01-23T00:49:55;5.47;;;3.42;;
66593;SDS011;53450;42.584;23.366;2023-01-23T00:52:23;7.60;;;4.00;;
66593;SDS011;53450;42.584;23.366;2023-01-23T00:54:52;6.47;;;3.60;;
66593;SDS011;53450;42.584;23.366;2023-01-23T00:57:18;6.15;;;3.78;;
66593;SDS011;53450;42.584;23.366;2023-01-23T00:59:44;3.60;;;3.30;;
66593;SDS011;53450;42.584;23.366;2023-01-23T01:02:10;14.80;;;5.65;;
66593;SDS011;53450;42.584;23.366;2023-01-23T01:04:36;4.75;;;3.80;;
66593;SDS011;53450;42.584;23.366;2023-01-23T01:07:02;5.75;;;4.38;;
66593;SDS011;53450;42.584;23.366;2023-01-23T01:09:27;7.68;;;4.10;;
66593;SDS011;53450;42.584;23.366;2023-01-23T01:11:53;7.43;;;3.40;;
66593;SDS011;53450;42.584;23.366;2023-01-23T01:14:18;7.32;;;3.72;;
66593;SDS011;53450;42.584;23.366;2023-01-23T01:16:45;12.80;;;3.65;;
66593;SDS011;53450;42.584;23.366;2023-01-23T01:19:12;3.70;;;3.15;;
66593;SDS011;53450;42.584;23.366;2023-01-23T01:21:39;4.25;;;2.85;;
66593;SDS011;53450;42.584;23.366;2023-01-23T01:24:05;3.90;;;2.85;;
66593;SDS011;53450;42.584;23.366;2023-01-23T01:26:31;8.57;;;3.90;;
66593;SDS011;53450;42.584;23.366;2023-01-23T01:28:56;5.13;;;3.45;;
66593;SDS011;53450;42.584;23.366;2023-01-23T01:31:22;7.20;;;4.32;;
66593;SDS011;53450;42.584;23.366;2023-01-23T01:33:48;5.50;;;3.22;;
66593;SDS011;53450;42.584;23.366;2023-01-23T01:36:17;5.00;;;3.75;;
66593;SDS011;53450;42.584;23.366;2023-01-23T01:38:45;6.03;;;4.05;;
66593;SDS011;53450;42.584;23.366;2023-01-23T01:41:11;5.68;;;3.53;;
66593;SDS011;53450;42.584;23.366;2023-01-23T01:43:37;5.50;;;3.30;;
66593;SDS011;53450;42.584;23.366;2023-01-23T01:46:15;9.77;;;5.38;;
66593;SDS011;53450;42.584;23.366;2023-01-23T01:48:55;7.05;;;4.38;;
66593;SDS011;53450;42.584;23.366;2023-01-23T01:54:10;8.73;;;4.50;;
66593;SDS011;53450;42.584;23.366;2023-01-23T01:56:42;8.23;;;4.30;;
66593;SDS011;53450;42.584;23.366;2023-01-23T01:59:15;9.13;;;4.65;;
66593;SDS011;53450;42.584;23.366;2023-01-23T02:01:42;6.18;;;3.95;;
66593;SDS011;53450;42.584;23.366;2023-01-23T02:04:11;17.42;;;10.65;;
66593;SDS011;53450;42.584;23.366;2023-01-23T02:06:37;6.68;;;4.38;;
66593;SDS011;53450;42.584;23.366;2023-01-23T02:09:04;8.13;;;4.43;;
66593;SDS011;53450;42.584;23.366;2023-01-23T02:11:35;6.25;;;4.70;;
66593;SDS011;53450;42.584;23.366;2023-01-23T02:14:01;9.68;;;4.47;;
66593;SDS011;53450;42.584;23.366;2023-01-23T02:16:27;9.70;;;4.82;;
66593;SDS011;53450;42.584;23.366;2023-01-23T02:19:00;9.45;;;4.82;;
66593;SDS011;53450;42.584;23.366;2023-01-23T02:21:31;6.32;;;3.67;;
66593;SDS011;53450;42.584;23.366;2023-01-23T02:24:19;9.00;;;4.30;;
66593;SDS011;53450;42.584;23.366;2023-01-23T02:26:50;12.23;;;5.75;;
66593;SDS011;53450;42.584;23.366;2023-01-23T02:29:16;9.23;;;5.00;;
66593;SDS011;53450;42.584;23.366;2023-01-23T02:31:52;10.10;;;5.22;;
66593;SDS011;53450;42.584;23.366;2023-01-23T02:34:20;13.27;;;5.63;;
66593;SDS011;53450;42.584;23.366;2023-01-23T02:36:47;8.70;;;4.60;;
66593;SDS011;53450;42.584;23.366;2023-01-23T02:39:14;6.50;;;4.95;;
66593;SDS011;53450;42.584;23.366;2023-01-23T02:41:46;9.77;;;4.63;;
66593;SDS011;53450;42.584;23.366;2023-01-23T02:44:24;9.50;;;4.57;;
66593;SDS011;53450;42.584;23.366;2023-01-23T02:47:04;6.00;;;4.43;;
66593;SDS011;53450;42.584;23.366;2023-01-23T02:49:37;9.45;;;4.90;;
66593;SDS011;53450;42.584;23.366;2023-01-23T02:52:05;7.60;;;4.70;;
66593;SDS011;53450;42.584;23.366;2023-01-23T02:54:31;11.50;;;4.07;;
66593;SDS011;53450;42.584;23.366;2023-01-23T02:56:57;7.80;;;4.65;;
66593;SDS011;53450;42.584;23.366;2023-01-23T02:59:23;4.90;;;4.30;;
66593;SDS011;53450;42.584;23.366;2023-01-23T03:02:07;6.47;;;4.53;;
66593;SDS011;53450;42.584;23.366;2023-01-23T03:04:33;4.80;;;3.70;;
66593;SDS011;53450;42.584;23.366;2023-01-23T03:06:59;2.70;;;2.47;;
66593;SDS011;53450;42.584;23.366;2023-01-23T03:09:25;4.50;;;3.75;;
66593;SDS011;53450;42.584;23.366;2023-01-23T03:11:50;6.35;;;3.38;;
66593;SDS011;53450;42.584;23.366;2023-01-23T03:14:17;6.88;;;3.60;;
66593;SDS011;53450;42.584;23.366;2023-01-23T03:16:45;5.30;;;3.45;;
66593;SDS011;53450;42.584;23.366;2023-01-23T03:19:20;4.63;;;3.28;;
66593;SDS011;53450;42.584;23.366;2023-01-23T03:21:48;6.50;;;3.63;;
66593;SDS011;53450;42.584;23.366;2023-01-23T03:24:15;4.72;;;3.63;;
66593;SDS011;53450;42.584;23.366;2023-01-23T03:26:42;4.22;;;3.42;;
66593;SDS011;53450;42.584;23.366;2023-01-23T03:29:16;7.20;;;3.75;;
66593;SDS011;53450;42.584;23.366;2023-01-23T03:32:03;4.63;;;3.83;;
66593;SDS011;53450;42.584;23.366;2023-01-23T03:34:29;3.90;;;3.50;;
66593;SDS011;53450;42.584;23.366;2023-01-23T03:36:55;5.13;;;3.40;;
66593;SDS011;53450;42.584;23.366;2023-01-23T03:39:23;5.55;;;4.32;;
66593;SDS011;53450;42.584;23.366;2023-01-23T03:42:07;10.63;;;5.80;;
66593;SDS011;53450;42.584;23.366;2023-01-23T03:44:33;7.07;;;4.10;;
66593;SDS011;53450;42.584;23.366;2023-01-23T03:46:58;6.75;;;4.30;;
66593;SDS011;53450;42.584;23.366;2023-01-23T03:49:24;4.73;;;4.23;;
66593;SDS011;53450;42.584;23.366;2023-01-23T03:52:16;5.57;;;4.35;;
66593;SDS011;53450;42.584;23.366;2023-01-23T03:54:41;6.93;;;4.47;;
66593;SDS011;53450;42.584;23.366;2023-01-23T03:57:08;7.20;;;4.93;;
66593;SDS011;53450;42.584;23.366;2023-01-23T03:59:45;8.40;;;4.72;;
66593;SDS011;53450;42.584;23.366;2023-01-23T04:02:11;3.35;;;2.92;;
66593;SDS011;53450;42.584;23.366;2023-01-23T04:04:37;8.10;;;4.65;;
66593;SDS011;53450;42.584;23.366;2023-01-23T04:07:06;4.90;;;4.23;;
66593;SDS011;53450;42.584;23.366;2023-01-23T04:09:33;6.68;;;4.38;;
66593;SDS011;53450;42.584;23.366;2023-01-23T04:11:59;12.43;;;4.43;;
66593;SDS011;53450;42.584;23.366;2023-01-23T04:14:26;11.20;;;4.78;;
66593;SDS011;53450;42.584;23.366;2023-01-23T04:16:55;6.03;;;4.20;;
66593;SDS011;53450;42.584;23.366;2023-01-23T04:19:20;8.33;;;4.93;;
66593;SDS011;53450;42.584;23.366;2023-01-23T04:21:46;12.02;;;4.90;;
66593;SDS011;53450;42.584;23.366;2023-01-23T04:24:13;7.68;;;4.88;;
66593;SDS011;53450;42.584;23.366;2023-01-23T04:26:40;10.00;;;4.43;;
66593;SDS011;53450;42.584;23.366;2023-01-23T04:29:05;6.35;;;4.65;;
66593;SDS011;53450;42.584;23.366;2023-01-23T04:31:32;6.20;;;4.20;;
66593;SDS011;53450;42.584;23.366;2023-01-23T04:33:58;5.10;;;4.00;;
66593;SDS011;53450;42.584;23.366;2023-01-23T04:36:23;5.27;;;4.30;;
66593;SDS011;53450;42.584;23.366;2023-01-23T04:38:49;5.00;;;4.10;;
66593;SDS011;53450;42.584;23.366;2023-01-23T04:41:20;5.45;;;4.20;;
66593;SDS011;53450;42.584;23.366;2023-01-23T04:43:57;5.95;;;4.75;;
66593;SDS011;53450;42.584;23.366;2023-01-23T04:46:50;5.32;;;4.40;;
66593;SDS011;53450;42.584;23.366;2023-01-23T04:49:19;4.90;;;3.90;;
66593;SDS011;53450;42.584;23.366;2023-01-23T04:51:46;4.60;;;4.03;;
66593;SDS011;53450;42.584;23.366;2023-01-23T04:54:12;4.97;;;3.80;;
66593;SDS011;53450;42.584;23.366;2023-01-23T04:56:39;8.45;;;4.50;;
66593;SDS011;53450;42.584;23.366;2023-01-23T04:59:07;5.70;;;4.00;;
66593;SDS011;53450;42.584;23.366;2023-01-23T05:01:34;4.57;;;3.60;;
66593;SDS011;53450;42.584;23.366;2023-01-23T05:04:02;4.90;;;3.78;;
66593;SDS011;53450;42.584;23.366;2023-01-23T05:06:28;6.30;;;4.43;;
66593;SDS011;53450;42.584;23.366;2023-01-23T05:08:56;5.45;;;4.15;;
66593;SDS011;53450;42.584;23.366;2023-01-23T05:11:27;4.35;;;3.92;;
66593;SDS011;53450;42.584;23.366;2023-01-23T05:13:53;6.88;;;4.18;;
66593;SDS011;53450;42.584;23.366;2023-01-23T05:16:19;7.00;;;4.72;;
66593;SDS011;53450;42.584;23.366;2023-01-23T05:19:08;5.72;;;3.95;;
66593;SDS011;53450;42.584;23.366;2023-01-23T05:21:34;6.82;;;4.72;;
66593;SDS011;53450;42.584;23.366;2023-01-23T05:24:00;7.38;;;4.75;;
66593;SDS011;53450;42.584;23.366;2023-01-23T05:26:52;6.75;;;5.00;;
66593;SDS011;53450;42.584;23.366;2023-01-23T05:29:18;7.28;;;5.10;;
66593;SDS011;53450;42.584;23.366;2023-01-23T05:31:53;4.90;;;3.90;;
66593;SDS011;53450;42.584;23.366;2023-01-23T05:34:41;6.70;;;4.93;;
66593;SDS011;53450;42.584;23.366;2023-01-23T05:37:20;6.22;;;4.93;;
66593;SDS011;53450;42.584;23.366;2023-01-23T05:39:51;5.15;;;4.32;;
66593;SDS011;53450;42.584;23.366;2023-01-23T05:42:17;4.30;;;2.97;;
66593;SDS011;53450;42.584;23.366;2023-01-23T05:45:12;6.23;;;4.27;;
66593;SDS011;53450;42.584;23.366;2023-01-23T05:47:40;4.13;;;3.33;;
66593;SDS011;53450;42.584;23.366;2023-01-23T05:50:08;7.53;;;3.70;;
66593;SDS011;53450;42.584;23.366;2023-01-23T05:52:36;5.00;;;3.58;;
66593;SDS011;53450;42.584;23.366;2023-01-23T05:55:02;5.30;;;3.73;;
66593;SDS011;53450;42.584;23.366;2023-01-23T05:57:29;4.10;;;3.53;;
66593;SDS011;53450;42.584;23.366;2023-01-23T06:00:13;4.30;;;3.30;;
66593;SDS011;53450;42.584;23.366;2023-01-23T06:03:08;3.23;;;2.93;;
66593;SDS011;53450;42.584;23.366;2023-01-23T06:05:47;3.67;;;3.13;;
66593;SDS011;53450;42.584;23.366;2023-01-23T06:08:16;5.60;;;4.83;;
66593;SDS011;53450;42.584;23.366;2023-01-23T06:10:43;2.87;;;2.57;;
66593;SDS011;53450;42.584;23.366;2023-01-23T06:13:09;3.47;;;3.17;;
66593;SDS011;53450;42.584;23.366;2023-01-23T06:15:35;2.40;;;2.20;;
66593;SDS011;53450;42.584;23.366;2023-01-23T06:18:06;4.40;;;3.33;;
66593;SDS011;53450;42.584;23.366;2023-01-23T06:20:32;2.60;;;2.40;;
66593;SDS011;53450;42.584;23.366;2023-01-23T06:22:59;2.70;;;2.50;;
66593;SDS011;53450;42.584;23.366;2023-01-23T06:25:26;4.75;;;2.33;;
66593;SDS011;53450;42.584;23.366;2023-01-23T06:27:53;4.27;;;2.50;;
66593;SDS011;53450;42.584;23.366;2023-01-23T06:30:19;3.53;;;3.17;;
66593;SDS011;53450;42.584;23.366;2023-01-23T06:32:46;3.77;;;3.10;;
66593;SDS011;53450;42.584;23.366;2023-01-23T06:35:15;8.10;;;4.33;;
66593;SDS011;53450;42.584;23.366;2023-01-23T06:37:42;7.03;;;5.47;;
66593;SDS011;53450;42.584;23.366;2023-01-23T06:40:11;6.33;;;4.23;;
66593;SDS011;53450;42.584;23.366;2023-01-23T06:42:39;7.47;;;3.57;;
66593;SDS011;53450;42.584;23.366;2023-01-23T06:45:06;5.77;;;4.27;;
66593;SDS011;53450;42.584;23.366;2023-01-23T06:47:33;4.03;;;3.33;;
66593;SDS011;53450;42.584;23.366;2023-01-23T06:49:59;5.83;;;3.53;;
66593;SDS011;53450;42.584;23.366;2023-01-23T06:52:29;5.55;;;4.40;;
66593;SDS011;53450;42.584;23.366;2023-01-23T06:54:55;8.65;;;5.15;;
66593;SDS011;53450;42.584;23.366;2023-01-23T06:57:20;6.60;;;3.55;;
66593;SDS011;53450;42.584;23.366;2023-01-23T06:59:47;6.07;;;4.25;;
66593;SDS011;53450;42.584;23.366;2023-01-23T07:02:17;13.30;;;7.63;;
66593;SDS011;53450;42.584;23.366;2023-01-23T07:04:45;7.77;;;5.03;;
66593;SDS011;53450;42.584;23.366;2023-01-23T07:07:11;9.00;;;6.10;;
66593;SDS011;53450;42.584;23.366;2023-01-23T07:09:38;8.32;;;5.40;;
66593;SDS011;53450;42.584;23.366;2023-01-23T07:12:09;9.70;;;6.30;;
66593;SDS011;53450;42.584;23.366;2023-01-23T07:14:34;11.30;;;7.03;;
66593;SDS011;53450;42.584;23.366;2023-01-23T07:17:00;11.93;;;7.80;;
66593;SDS011;53450;42.584;23.366;2023-01-23T07:19:26;13.40;;;8.63;;
66593;SDS011;53450;42.584;23.366;2023-01-23T07:21:53;18.17;;;13.40;;
66593;SDS011;53450;42.584;23.366;2023-01-23T07:24:19;22.83;;;13.70;;
66593;SDS011;53450;42.584;23.366;2023-01-23T07:26:44;12.60;;;7.83;;
66593;SDS011;53450;42.584;23.366;2023-01-23T07:29:10;24.00;;;12.60;;
66593;SDS011;53450;42.584;23.366;2023-01-23T07:31:36;16.63;;;10.20;;
66593;SDS011;53450;42.584;23.366;2023-01-23T07:34:01;28.17;;;17.73;;
66593;SDS011;53450;42.584;23.366;2023-01-23T07:36:27;25.43;;;14.77;;
66593;SDS011;53450;42.584;23.366;2023-01-23T07:38:54;31.97;;;20.50;;
66593;SDS011;53450;42.584;23.366;2023-01-23T07:41:20;23.33;;;8.73;;
66593;SDS011;53450;42.584;23.366;2023-01-23T07:43:46;12.90;;;7.67;;
66593;SDS011;53450;42.584;23.366;2023-01-23T07:46:11;14.53;;;8.03;;
66593;SDS011;53450;42.584;23.366;2023-01-23T07:48:37;32.73;;;18.30;;
66593;SDS011;53450;42.584;23.366;2023-01-23T07:51:03;13.73;;;8.10;;
66593;SDS011;53450;42.584;23.366;2023-01-23T07:53:29;18.93;;;12.10;;
66593;SDS011;53450;42.584;23.366;2023-01-23T07:55:54;11.00;;;7.57;;
66593;SDS011;53450;42.584;23.366;2023-01-23T07:58:20;18.97;;;11.03;;
66593;SDS011;53450;42.584;23.366;2023-01-23T08:00:46;15.03;;;8.83;;
66593;SDS011;53450;42.584;23.366;2023-01-23T08:03:11;8.67;;;6.20;;
66593;SDS011;53450;42.584;23.366;2023-01-23T08:05:37;16.80;;;9.57;;
66593;SDS011;53450;42.584;23.366;2023-01-23T08:08:02;17.87;;;11.07;;
66593;SDS011;53450;42.584;23.366;2023-01-23T08:10:28;44.27;;;26.47;;
66593;SDS011;53450;42.584;23.366;2023-01-23T08:12:54;19.80;;;11.30;;
66593;SDS011;53450;42.584;23.366;2023-01-23T08:15:19;17.73;;;12.33;;
66593;SDS011;53450;42.584;23.366;2023-01-23T08:17:45;19.90;;;10.80;;
66593;SDS011;53450;42.584;23.366;2023-01-23T08:20:11;25.87;;;15.13;;
66593;SDS011;53450;42.584;23.366;2023-01-23T08:22:36;11.53;;;7.00;;
66593;SDS011;53450;42.584;23.366;2023-01-23T08:25:06;18.77;;;6.17;;
66593;SDS011;53450;42.584;23.366;2023-01-23T08:28:00;11.80;;;5.97;;
66593;SDS011;53450;42.584;23.366;2023-01-23T08:30:26;11.73;;;7.03;;
66593;SDS011;53450;42.584;23.366;2023-01-23T08:32:51;10.73;;;5.87;;
66593;SDS011;53450;42.584;23.366;2023-01-23T08:35:17;8.63;;;5.30;;
66593;SDS011;53450;42.584;23.366;2023-01-23T08:37:42;9.20;;;5.50;;
66593;SDS011;53450;42.584;23.366;2023-01-23T08:40:08;10.10;;;5.10;;
66593;SDS011;53450;42.584;23.366;2023-01-23T08:42:34;10.87;;;7.53;;
66593;SDS011;53450;42.584;23.366;2023-01-23T08:45:00;15.70;;;11.27;;
66593;SDS011;53450;42.584;23.366;2023-01-23T08:47:25;9.63;;;6.17;;
66593;SDS011;53450;42.584;23.366;2023-01-23T08:49:51;15.10;;;11.03;;
66593;SDS011;53450;42.584;23.366;2023-01-23T08:52:16;68.63;;;30.93;;
66593;SDS011;53450;42.584;23.366;2023-01-23T08:54:42;14.20;;;7.53;;
66593;SDS011;53450;42.584;23.366;2023-01-23T08:57:08;14.17;;;7.50;;
66593;SDS011;53450;42.584;23.366;2023-01-23T08:59:33;8.77;;;4.57;;
66593;SDS011;53450;42.584;23.366;2023-01-23T09:01:59;11.27;;;6.47;;
66593;SDS011;53450;42.584;23.366;2023-01-23T09:04:24;17.07;;;11.17;;
66593;SDS011;53450;42.584;23.366;2023-01-23T09:06:50;16.80;;;12.03;;
66593;SDS011;53450;42.584;23.366;2023-01-23T09:09:15;13.20;;;8.37;;
66593;SDS011;53450;42.584;23.366;2023-01-23T09:11:42;11.00;;;6.40;;
66593;SDS011;53450;42.584;23.366;2023-01-23T09:14:07;13.00;;;9.60;;
66593;SDS011;53450;42.584;23.366;2023-01-23T09:16:35;7.37;;;5.30;;
66593;SDS011;53450;42.584;23.366;2023-01-23T09:19:01;16.23;;;5.40;;
66593;SDS011;53450;42.584;23.366;2023-01-23T09:21:29;7.75;;;5.00;;
66593;SDS011;53450;42.584;23.366;2023-01-23T09:23:55;9.90;;;6.10;;
66593;SDS011;53450;42.584;23.366;2023-01-23T09:26:21;10.47;;;6.43;;
66593;SDS011;53450;42.584;23.366;2023-01-23T09:28:46;10.67;;;7.67;;
66593;SDS011;53450;42.584;23.366;2023-01-23T09:31:12;11.50;;;6.57;;
66593;SDS011;53450;42.584;23.366;2023-01-23T09:33:38;28.80;;;13.73;;
66593;SDS011;53450;42.584;23.366;2023-01-23T09:36:05;19.90;;;10.27;;
66593;SDS011;53450;42.584;23.366;2023-01-23T09:38:31;37.73;;;16.20;;
66593;SDS011;53450;42.584;23.366;2023-01-23T09:40:58;87.37;;;31.07;;
66593;SDS011;53450;42.584;23.366;2023-01-23T09:48:48;25.13;;;14.43;;
66593;SDS011;53450;42.584;23.366;2023-01-23T09:54:16;34.42;;;14.05;;
66593;SDS011;53450;42.584;23.366;2023-01-23T09:56:51;25.57;;;13.20;;
66593;SDS011;53450;42.584;23.366;2023-01-23T09:59:34;16.23;;;9.63;;
66593;SDS011;53450;42.584;23.366;2023-01-23T10:02:14;20.77;;;10.90;;
66593;SDS011;53450;42.584;23.366;2023-01-23T10:04:44;32.67;;;17.67;;
66593;SDS011;53450;42.584;23.366;2023-01-23T10:24:04;9.60;;;6.33;;
66593;SDS011;53450;42.584;23.366;2023-01-23T10:26:35;22.93;;;12.27;;
66593;SDS011;53450;42.584;23.366;2023-01-23T10:29:35;16.47;;;9.50;;
66593;SDS011;53450;42.584;23.366;2023-01-23T10:32:07;10.43;;;6.97;;
66593;SDS011;53450;42.584;23.366;2023-01-23T10:34:57;22.63;;;12.33;;
66593;SDS011;53450;42.584;23.366;2023-01-23T10:40:16;10.20;;;7.10;;
66593;SDS011;53450;42.584;23.366;2023-01-23T10:43:14;9.38;;;6.63;;
66593;SDS011;53450;42.584;23.366;2023-01-23T10:45:41;13.50;;;7.17;;
66593;SDS011;53450;42.584;23.366;2023-01-23T10:48:27;11.07;;;7.50;;
66593;SDS011;53450;42.584;23.366;2023-01-23T10:50:56;13.20;;;7.43;;
66593;SDS011;53450;42.584;23.366;2023-01-23T10:53:22;11.80;;;7.67;;
66593;SDS011;53450;42.584;23.366;2023-01-23T10:55:52;12.33;;;8.87;;
66593;SDS011;53450;42.584;23.366;2023-01-23T10:58:26;13.77;;;9.40;;
66593;SDS011;53450;42.584;23.366;2023-01-23T11:01:24;16.20;;;8.63;;
66593;SDS011;53450;42.584;23.366;2023-01-23T11:03:51;14.23;;;8.67;;
66593;SDS011;53450;42.584;23.366;2023-01-23T11:06:19;14.37;;;9.83;;
66593;SDS011;53450;42.584;23.366;2023-01-23T11:08:56;13.53;;;8.60;;
66593;SDS011;53450;42.584;23.366;2023-01-23T11:11:27;19.40;;;12.17;;
66593;SDS011;53450;42.584;23.366;2023-01-23T11:14:05;18.60;;;12.50;;
66593;SDS011;53450;42.584;23.366;2023-01-23T11:16:33;23.57;;;16.33;;
66593;SDS011;53450;42.584;23.366;2023-01-23T11:19:19;28.20;;;10.67;;
66593;SDS011;53450;42.584;23.366;2023-01-23T11:21:54;38.57;;;18.93;;
66593;SDS011;53450;42.584;23.366;2023-01-23T11:26:57;33.03;;;20.43;;
66593;SDS011;53450;42.584;23.366;2023-01-23T11:30:00;40.70;;;19.23;;
66593;SDS011;53450;42.584;23.366;2023-01-23T11:32:34;90.80;;;42.17;;
66593;SDS011;53450;42.584;23.366;2023-01-23T11:35:12;73.53;;;33.67;;
66593;SDS011;53450;42.584;23.366;2023-01-23T11:37:49;68.53;;;31.93;;
66593;SDS011;53450;42.584;23.366;2023-01-23T11:40:17;36.73;;;20.43;;
66593;SDS011;53450;42.584;23.366;2023-01-23T11:43:11;28.53;;;17.37;;
66593;SDS011;53450;42.584;23.366;2023-01-23T11:48:35;36.20;;;21.47;;
66593;SDS011;53450;42.584;23.366;2023-01-23T11:54:31;11.10;;;7.77;;
66593;SDS011;53450;42.584;23.366;2023-01-23T11:57:01;16.80;;;8.80;;
66593;SDS011;53450;42.584;23.366;2023-01-23T12:07:38;31.07;;;17.57;;
66593;SDS011;53450;42.584;23.366;2023-01-23T12:16:22;29.43;;;18.37;;
66593;SDS011;53450;42.584;23.366;2023-01-23T12:19:04;33.83;;;18.93;;
66593;SDS011;53450;42.584;23.366;2023-01-23T12:21:37;24.50;;;15.20;;
66593;SDS011;53450;42.584;23.366;2023-01-23T12:27:20;19.37;;;12.27;;
66593;SDS011;53450;42.584;23.366;2023-01-23T12:41:41;34.88;;;16.40;;
66593;SDS011;53450;42.584;23.366;2023-01-23T12:46:41;29.47;;;17.03;;
66593;SDS011;53450;42.584;23.366;2023-01-23T12:51:49;32.30;;;14.97;;
66593;SDS011;53450;42.584;23.366;2023-01-23T12:54:25;29.37;;;14.73;;
66593;SDS011;53450;42.584;23.366;2023-01-23T12:57:07;25.20;;;13.50;;
66593;SDS011;53450;42.584;23.366;2023-01-23T12:59:40;23.23;;;12.90;;
66593;SDS011;53450;42.584;23.366;2023-01-23T13:02:32;36.60;;;21.20;;
66593;SDS011;53450;42.584;23.366;2023-01-23T13:26:24;52.57;;;28.43;;
66593;SDS011;53450;42.584;23.366;2023-01-23T13:28:57;55.53;;;29.20;;
66593;SDS011;53450;42.584;23.366;2023-01-23T13:31:42;49.27;;;26.63;;
66593;SDS011;53450;42.584;23.366;2023-01-23T13:36:51;23.08;;;12.15;;
66593;SDS011;53450;42.584;23.366;2023-01-23T13:39:22;29.10;;;16.67;;
66593;SDS011;53450;42.584;23.366;2023-01-23T13:47:48;25.87;;;18.23;;
66593;SDS011;53450;42.584;23.366;2023-01-23T13:50:59;22.07;;;11.73;;
66593;SDS011;53450;42.584;23.366;2023-01-23T13:54:00;36.70;;;21.57;;
66593;SDS011;53450;42.584;23.366;2023-01-23T13:57:10;22.83;;;12.13;;
66593;SDS011;53450;42.584;23.366;2023-01-23T13:59:46;16.10;;;9.80;;
66593;SDS011;53450;42.584;23.366;2023-01-23T14:05:27;20.47;;;12.60;;
66593;SDS011;53450;42.584;23.366;2023-01-23T14:08:04;21.53;;;12.73;;
66593;SDS011;53450;42.584;23.366;2023-01-23T14:10:43;21.47;;;11.53;;
66593;SDS011;53450;42.584;23.366;2023-01-23T14:13:11;16.83;;;9.30;;
66593;SDS011;53450;42.584;23.366;2023-01-23T14:15:39;23.80;;;15.60;;
66593;SDS011;53450;42.584;23.366;2023-01-23T14:18:28;19.73;;;10.07;;
66593;SDS011;53450;42.584;23.366;2023-01-23T14:21:04;21.70;;;10.27;;
66593;SDS011;53450;42.584;23.366;2023-01-23T14:23:40;32.20;;;17.53;;
66593;SDS011;53450;42.584;23.366;2023-01-23T14:26:07;16.27;;;10.90;;
66593;SDS011;53450;42.584;23.366;2023-01-23T14:29:04;14.53;;;8.20;;
66593;SDS011;53450;42.584;23.366;2023-01-23T14:32:23;14.27;;;8.90;;
66593;SDS011;53450;42.584;23.366;2023-01-23T14:34:49;12.73;;;7.83;;
66593;SDS011;53450;42.584;23.366;2023-01-23T14:37:15;10.40;;;7.10;;
66593;SDS011;53450;42.584;23.366;2023-01-23T14:39:43;14.97;;;8.00;;
66593;SDS011;53450;42.584;23.366;2023-01-23T14:42:12;20.93;;;11.03;;
66593;SDS011;53450;42.584;23.366;2023-01-23T14:44:49;22.50;;;11.37;;
66593;SDS011;53450;42.584;23.366;2023-01-23T14:47:24;16.53;;;9.13;;
66593;SDS011;53450;42.584;23.366;2023-01-23T14:49:59;28.73;;;16.00;;
66593;SDS011;53450;42.584;23.366;2023-01-23T14:52:26;31.70;;;19.13;;
66593;SDS011;53450;42.584;23.366;2023-01-23T14:54:54;18.77;;;9.90;;
66593;SDS011;53450;42.584;23.366;2023-01-23T14:57:22;15.50;;;8.40;;
66593;SDS011;53450;42.584;23.366;2023-01-23T14:59:53;13.90;;;8.40;;
66593;SDS011;53450;42.584;23.366;2023-01-23T15:05:29;14.03;;;8.30;;
66593;SDS011;53450;42.584;23.366;2023-01-23T15:07:56;13.80;;;7.90;;
66593;SDS011;53450;42.584;23.366;2023-01-23T15:13:06;21.47;;;11.30;;
66593;SDS011;53450;42.584;23.366;2023-01-23T15:15:36;7.72;;;5.07;;
66593;SDS011;53450;42.584;23.366;2023-01-23T15:18:04;10.37;;;7.10;;
66593;SDS011;53450;42.584;23.366;2023-01-23T15:20:40;20.20;;;10.83;;
66593;SDS011;53450;42.584;23.366;2023-01-23T15:26:10;9.90;;;6.17;;
66593;SDS011;53450;42.584;23.366;2023-01-23T15:28:46;10.27;;;6.83;;
66593;SDS011;53450;42.584;23.366;2023-01-23T15:31:24;11.40;;;6.67;;
66593;SDS011;53450;42.584;23.366;2023-01-23T15:33:53;12.43;;;7.73;;
66593;SDS011;53450;42.584;23.366;2023-01-23T15:38:53;26.23;;;17.87;;
66593;SDS011;53450;42.584;23.366;2023-01-23T15:41:20;24.97;;;16.50;;
66593;SDS011;53450;42.584;23.366;2023-01-23T15:43:59;28.13;;;14.20;;
66593;SDS011;53450;42.584;23.366;2023-01-23T15:46:25;71.93;;;30.53;;
66593;SDS011;53450;42.584;23.366;2023-01-23T15:48:50;30.97;;;16.93;;
66593;SDS011;53450;42.584;23.366;2023-01-23T15:51:16;22.37;;;10.33;;
66593;SDS011;53450;42.584;23.366;2023-01-23T15:53:42;18.37;;;10.10;;
66593;SDS011;53450;42.584;23.366;2023-01-23T15:56:07;20.30;;;11.73;;
66593;SDS011;53450;42.584;23.366;2023-01-23T15:58:49;26.50;;;14.53;;
66593;SDS011;53450;42.584;23.366;2023-01-23T16:01:15;14.90;;;9.27;;
66593;SDS011;53450;42.584;23.366;2023-01-23T16:03:40;27.80;;;16.03;;
66593;SDS011;53450;42.584;23.366;2023-01-23T16:06:09;20.97;;;14.77;;
66593;SDS011;53450;42.584;23.366;2023-01-23T16:08:40;22.90;;;13.07;;
66593;SDS011;53450;42.584;23.366;2023-01-23T16:11:05;14.80;;;8.53;;
66593;SDS011;53450;42.584;23.366;2023-01-23T16:13:31;25.93;;;16.10;;
66593;SDS011;53450;42.584;23.366;2023-01-23T16:15:57;13.47;;;8.70;;
66593;SDS011;53450;42.584;23.366;2023-01-23T16:18:22;19.20;;;11.07;;
66593;SDS011;53450;42.584;23.366;2023-01-23T16:20:48;15.70;;;11.17;;
66593;SDS011;53450;42.584;23.366;2023-01-23T16:23:17;37.70;;;16.87;;
66593;SDS011;53450;42.584;23.366;2023-01-23T16:25:45;24.65;;;13.18;;
66593;SDS011;53450;42.584;23.366;2023-01-23T16:28:14;24.17;;;13.07;;
66593;SDS011;53450;42.584;23.366;2023-01-23T16:30:42;19.80;;;12.25;;
66593;SDS011;53450;42.584;23.366;2023-01-23T16:33:08;54.50;;;21.93;;
66593;SDS011;53450;42.584;23.366;2023-01-23T16:35:33;19.87;;;10.23;;
66593;SDS011;53450;42.584;23.366;2023-01-23T16:37:59;49.50;;;20.73;;
66593;SDS011;53450;42.584;23.366;2023-01-23T16:40:25;48.67;;;22.63;;
66593;SDS011;53450;42.584;23.366;2023-01-23T16:42:56;22.23;;;11.68;;
66593;SDS011;53450;42.584;23.366;2023-01-23T16:45:23;49.57;;;25.10;;